Time;durP1;ratioP1;P1;durP2;ratioP2;P2;SDS_P1;SDS_P2;PMS_P1;PMS_P2;Temp;Humidity;BMP_temperature;BMP_pressure;BME280_temperature;BME280_humidity;BME280_pressure;Samples;Min_cycle;Max_cycle;Signal;HPM_P1;HPM_P2
2020/12/17 00:00:16;;;;;;;25.40;16.05;;;6.10;99.90;;;;;;5059214;28;20217;-85
2020/12/17 00:02:45;;;;;;;21.08;17.10;;;6.10;99.90;;;;;;5059278;28;20202;-85
2020/12/17 00:05:11;;;;;;;15.95;14.45;;;6.10;99.90;;;;;;5064668;28;20209;-84
2020/12/17 00:07:38;;;;;;;17.77;15.52;;;6.10;99.90;;;;;;5065747;28;20290;-85
2020/12/17 00:10:06;;;;;;;21.65;15.52;;;6.20;99.90;;;;;;5065759;28;20217;-85
2020/12/17 00:12:35;;;;;;;14.30;12.90;;;6.20;99.90;;;;;;5064840;28;20237;-84
2020/12/17 00:15:03;;;;;;;20.33;13.93;;;6.20;99.90;;;;;;5065231;28;20213;-85
2020/12/17 00:17:31;;;;;;;16.20;14.50;;;6.20;99.90;;;;;;5064486;28;20229;-85
2020/12/17 00:19:58;;;;;;;16.05;13.65;;;6.20;99.90;;;;;;5064340;28;20206;-85
2020/12/17 00:22:24;;;;;;;16.25;14.52;;;6.20;99.90;;;;;;5064405;28;20206;-84
2020/12/17 00:24:50;;;;;;;23.50;15.07;;;6.20;99.90;;;;;;5063506;28;20208;-85
2020/12/17 00:27:18;;;;;;;17.85;15.05;;;6.20;99.90;;;;;;5063596;28;20232;-85
2020/12/17 00:29:45;;;;;;;18.25;16.33;;;6.20;99.90;;;;;;5063058;28;20223;-85
2020/12/17 00:32:16;;;;;;;17.67;15.90;;;6.20;99.90;;;;;;5063603;28;20224;-85
2020/12/17 00:34:45;;;;;;;21.02;17.60;;;6.20;99.90;;;;;;5063379;28;20315;-85
2020/12/17 00:37:13;;;;;;;19.48;17.45;;;6.10;99.90;;;;;;5063140;28;20260;-85
2020/12/17 00:39:40;;;;;;;20.42;16.20;;;6.10;99.90;;;;;;5062838;28;20570;-85
2020/12/17 00:42:08;;;;;;;17.42;15.73;;;6.10;99.90;;;;;;5063975;28;20201;-84
2020/12/17 00:44:37;;;;;;;15.40;13.75;;;6.10;99.90;;;;;;5063990;28;20216;-85
2020/12/17 00:47:03;;;;;;;15.30;13.75;;;6.10;99.90;;;;;;5063433;28;20226;-84
2020/12/17 00:49:29;;;;;;;14.73;13.43;;;6.00;99.90;;;;;;5064049;28;20205;-85
2020/12/17 00:51:59;;;;;;;13.82;12.60;;;6.00;99.90;;;;;;5063733;28;20233;-84
2020/12/17 00:54:29;;;;;;;13.88;12.55;;;6.00;99.90;;;;;;5064244;28;20209;-85
2020/12/17 00:56:57;;;;;;;14.07;12.77;;;6.00;99.90;;;;;;5064885;28;20226;-85
2020/12/17 00:59:24;;;;;;;15.23;13.70;;;5.90;99.90;;;;;;5064663;28;20219;-83
2020/12/17 01:01:50;;;;;;;14.93;13.38;;;5.90;99.90;;;;;;5064130;28;20216;-85
2020/12/17 01:04:16;;;;;;;15.50;13.73;;;5.80;99.90;;;;;;5064623;28;20599;-85
2020/12/17 01:06:42;;;;;;;14.20;12.93;;;5.80;99.90;;;;;;5064283;28;20240;-85
2020/12/17 01:09:10;;;;;;;14.05;12.60;;;5.70;99.90;;;;;;5063413;28;20208;-85
2020/12/17 01:11:37;;;;;;;15.10;13.70;;;5.70;99.90;;;;;;5063358;28;20215;-85
2020/12/17 01:14:04;;;;;;;14.35;12.98;;;5.60;99.90;;;;;;5063118;28;20629;-85
2020/12/17 01:16:30;;;;;;;15.52;14.02;;;5.60;99.90;;;;;;5063954;28;20256;-85
2020/12/17 01:18:57;;;;;;;14.90;13.40;;;5.50;99.90;;;;;;5062756;28;20205;-85
2020/12/17 01:21:23;;;;;;;14.98;13.30;;;5.50;99.90;;;;;;5062925;28;20208;-85
2020/12/17 01:23:49;;;;;;;14.18;12.75;;;5.50;99.90;;;;;;5061865;28;20274;-84
2020/12/17 01:26:15;;;;;;;14.52;13.13;;;5.50;99.90;;;;;;5062519;28;20235;-84
2020/12/17 01:28:42;;;;;;;13.85;12.55;;;5.40;99.90;;;;;;5062764;28;20261;-85
2020/12/17 01:31:10;;;;;;;13.25;12.20;;;5.40;99.90;;;;;;5062695;28;20211;-85
2020/12/17 01:33:37;;;;;;;13.15;12.00;;;5.40;99.90;;;;;;5061862;28;20229;-85
2020/12/17 01:36:06;;;;;;;14.73;13.32;;;5.40;99.90;;;;;;5062518;28;20663;-85
2020/12/17 01:38:32;;;;;;;15.07;13.48;;;5.30;99.90;;;;;;5062570;28;20209;-83
2020/12/17 01:40:58;;;;;;;15.75;14.35;;;5.30;99.90;;;;;;5063998;28;20226;-85
2020/12/17 01:43:26;;;;;;;15.60;13.90;;;5.20;99.90;;;;;;5063522;28;20676;-85
2020/12/17 01:45:54;;;;;;;15.75;13.48;;;5.10;99.90;;;;;;5062146;28;20215;-85
2020/12/17 01:48:21;;;;;;;15.13;13.63;;;5.10;99.90;;;;;;5061934;28;20609;-84
2020/12/17 01:50:48;;;;;;;17.90;16.13;;;5.00;99.90;;;;;;5061454;28;20303;-85
2020/12/17 01:53:14;;;;;;;16.15;14.45;;;5.00;99.90;;;;;;5060561;28;20227;-84
2020/12/17 01:55:40;;;;;;;17.45;14.13;;;5.00;99.90;;;;;;5060896;28;20582;-84
2020/12/17 01:58:10;;;;;;;16.42;14.32;;;5.00;99.90;;;;;;5060834;28;20309;-85
2020/12/17 02:00:38;;;;;;;16.52;14.85;;;4.90;99.90;;;;;;5060537;28;20616;-84
2020/12/17 02:03:06;;;;;;;18.90;14.63;;;5.00;99.90;;;;;;5060411;28;20583;-84
2020/12/17 02:05:35;;;;;;;14.70;13.30;;;4.90;99.90;;;;;;5061356;28;20208;-85
2020/12/17 02:08:03;;;;;;;15.50;13.57;;;4.90;99.90;;;;;;5061476;28;20235;-85
2020/12/17 02:10:31;;;;;;;15.43;13.65;;;4.80;99.90;;;;;;5060843;28;20203;-85
2020/12/17 02:12:57;;;;;;;14.50;12.95;;;4.80;99.90;;;;;;5060487;28;20233;-84
2020/12/17 02:15:23;;;;;;;16.52;14.80;;;4.80;99.90;;;;;;5061062;28;20207;-85
2020/12/17 02:17:50;;;;;;;14.40;11.70;;;4.80;99.90;;;;;;5060269;28;20227;-85
2020/12/17 02:20:17;;;;;;;13.32;12.13;;;4.70;99.90;;;;;;5060060;28;20216;-85
2020/12/17 02:22:43;;;;;;;16.50;12.98;;;4.70;99.90;;;;;;5060486;28;20208;-85
2020/12/17 02:25:12;;;;;;;17.92;12.93;;;4.70;99.90;;;;;;5060001;28;20206;-85
2020/12/17 02:27:39;;;;;;;14.98;13.38;;;4.70;99.90;;;;;;5059470;28;20250;-84
2020/12/17 02:30:07;;;;;;;13.27;11.73;;;4.70;99.90;;;;;;5059640;28;20218;-85
2020/12/17 02:32:33;;;;;;;13.70;12.35;;;4.70;99.90;;;;;;5060196;28;20233;-84
2020/12/17 02:35:00;;;;;;;12.75;11.48;;;4.70;99.90;;;;;;5059911;28;20295;-85
2020/12/17 02:37:26;;;;;;;12.73;11.43;;;4.70;99.90;;;;;;5060474;28;20608;-85
2020/12/17 02:39:52;;;;;;;13.27;11.68;;;4.70;99.90;;;;;;5060256;28;20563;-85
2020/12/17 02:42:19;;;;;;;12.93;11.52;;;4.80;99.90;;;;;;5060554;28;20237;-85
2020/12/17 02:44:48;;;;;;;12.05;10.65;;;4.90;99.90;;;;;;5060780;28;20216;-85
2020/12/17 02:47:15;;;;;;;12.50;11.15;;;4.90;99.90;;;;;;5060215;28;20243;-83
2020/12/17 02:49:41;;;;;;;12.70;11.40;;;5.00;99.90;;;;;;5059726;28;20212;-85
2020/12/17 02:52:07;;;;;;;15.25;13.65;;;5.10;99.90;;;;;;5060070;28;20227;-84
2020/12/17 02:54:33;;;;;;;11.57;10.45;;;5.10;99.90;;;;;;5061094;28;20583;-85
2020/12/17 02:56:59;;;;;;;12.55;11.45;;;5.10;99.90;;;;;;5059563;28;20747;-84
2020/12/17 02:59:27;;;;;;;12.68;11.02;;;5.20;99.90;;;;;;5060961;28;20207;-82
2020/12/17 03:01:53;;;;;;;12.45;11.10;;;5.20;99.90;;;;;;5060298;28;20211;-82
2020/12/17 03:04:21;;;;;;;13.90;12.68;;;5.20;99.90;;;;;;5059860;28;20566;-84
2020/12/17 03:06:47;;;;;;;15.02;12.85;;;5.20;99.90;;;;;;5059358;28;20598;-83
2020/12/17 03:09:13;;;;;;;12.98;11.75;;;5.20;99.90;;;;;;5059342;28;20208;-84
2020/12/17 03:11:40;;;;;;;12.80;11.70;;;5.10;99.90;;;;;;5060449;28;20207;-85
2020/12/17 03:14:06;;;;;;;14.63;10.85;;;5.10;99.90;;;;;;5060279;28;20226;-85
2020/12/17 03:16:33;;;;;;;13.98;12.57;;;5.10;99.90;;;;;;5060738;28;20225;-85
2020/12/17 03:19:20;;;;;;;13.20;11.90;;;5.10;99.90;;;;;;5060357;28;20209;-86
2020/12/17 03:21:50;;;;;;;13.85;12.50;;;5.10;99.90;;;;;;5060046;28;20207;-86
2020/12/17 03:24:17;;;;;;;13.93;12.73;;;5.00;99.90;;;;;;5060202;28;20222;-87
2020/12/17 03:27:09;;;;;;;;;;;;;;;;;;;;;
2020/12/17 03:32:32;;;;;;;13.98;12.48;;;5.00;99.90;;;;;;5057932;28;20610;-86
2020/12/17 03:35:02;;;;;;;12.80;11.55;;;4.90;99.90;;;;;;5059665;28;20630;-86
2020/12/17 03:37:28;;;;;;;13.88;12.07;;;4.90;99.90;;;;;;5060673;28;20259;-86
2020/12/17 03:40:39;;;;;;;14.68;13.25;;;4.90;99.90;;;;;;5063464;28;20217;-86
2020/12/17 03:47:07;;;;;;;;;;;;;;;;;;;;;
2020/12/17 03:50:17;;;;;;;;;;;;;;;;;;;;;
2020/12/17 03:53:11;;;;;;;;;;;;;;;;;;;;;
2020/12/17 03:55:55;;;;;;;13.43;11.93;;;4.70;99.90;;;;;;5063345;28;20211;-86
2020/12/17 03:58:26;;;;;;;12.52;11.27;;;4.70;99.90;;;;;;5062980;28;20271;-86
2020/12/17 04:01:21;;;;;;;;;;;;;;;;;;;;;
2020/12/17 04:04:13;;;;;;;11.95;10.77;;;4.60;99.90;;;;;;5062328;28;20292;-86
2020/12/17 04:07:21;;;;;;;15.60;14.25;;;4.60;99.90;;;;;;5062652;28;20306;-86
2020/12/17 04:10:06;;;;;;;12.43;11.23;;;4.50;99.90;;;;;;4968885;28;20228;-86
2020/12/17 04:12:34;;;;;;;11.73;9.90;;;4.50;99.90;;;;;;4980587;28;20209;-86
2020/12/17 04:15:13;;;;;;;;;;;;;;;;;;;;;
2020/12/17 04:17:55;;;;;;;11.93;10.77;;;4.50;99.90;;;;;;5060652;28;20289;-86
2020/12/17 04:23:23;;;;;;;13.23;12.13;;;4.40;99.90;;;;;;5059840;28;20186;-86
2020/12/17 04:26:40;;;;;;;12.32;11.15;;;4.40;99.90;;;;;;5062284;28;20201;-86
2020/12/17 04:29:20;;;;;;;13.48;11.13;;;4.40;99.90;;;;;;5062469;28;20268;-86
2020/12/17 04:32:38;;;;;;;12.20;9.90;;;4.30;99.90;;;;;;5061770;28;20205;-86
2020/12/17 04:35:10;;;;;;;13.05;11.85;;;4.30;99.90;;;;;;4904412;29;20430;-86
2020/12/17 04:41:05;;;;;;;11.60;10.40;;;4.20;99.90;;;;;;4980064;28;20217;-86
2020/12/17 04:43:55;;;;;;;;;;;;;;;;;;;;;
2020/12/17 04:46:39;;;;;;;12.38;11.18;;;4.10;99.90;;;;;;5058018;28;20304;-86
2020/12/17 04:52:31;;;;;;;;;;;;;;;;;;;;;
2020/12/17 04:55:03;;;;;;;12.18;9.93;;;4.00;99.90;;;;;;5022680;28;20261;-86
2020/12/17 04:57:32;;;;;;;11.77;10.77;;;4.00;99.90;;;;;;5062052;28;20230;-86
2020/12/17 05:00:02;;;;;;;11.90;10.70;;;4.00;99.90;;;;;;5061533;28;20210;-86
2020/12/17 05:02:36;;;;;;;11.90;10.73;;;4.00;99.90;;;;;;5061309;28;20200;-86
2020/12/17 05:05:07;;;;;;;9.82;8.93;;;4.00;99.90;;;;;;5061614;28;20214;-86
2020/12/17 05:07:36;;;;;;;11.43;10.32;;;4.00;99.90;;;;;;5063398;28;20243;-85
2020/12/17 05:10:14;;;;;;;12.32;11.23;;;3.90;99.90;;;;;;5064554;28;20250;-85
2020/12/17 05:12:40;;;;;;;12.57;10.05;;;3.90;99.90;;;;;;5064720;28;20211;-85
2020/12/17 05:15:11;;;;;;;11.70;10.32;;;3.90;99.90;;;;;;5064594;28;20207;-85
2020/12/17 05:18:06;;;;;;;;;;;;;;;;;;;;;
2020/12/17 05:20:38;;;;;;;12.82;11.63;;;3.70;99.90;;;;;;5064603;28;20281;-85
2020/12/17 05:23:26;;;;;;;;;;;;;;;;;;;;;
2020/12/17 05:25:58;;;;;;;10.93;10.00;;;3.70;99.90;;;;;;5063676;28;20210;-85
2020/12/17 05:28:39;;;;;;;;;;;;;;;;;;;;;
2020/12/17 05:31:28;;;;;;;12.38;11.07;;;3.70;99.90;;;;;;5070272;28;20234;-84
2020/12/17 05:34:06;;;;;;;11.68;10.57;;;3.60;99.90;;;;;;5073865;28;20242;-83
2020/12/17 05:36:54;;;;;;;10.60;9.52;;;3.60;99.90;;;;;;5073792;28;20230;-83
2020/12/17 05:39:32;;;;;;;11.57;10.48;;;3.50;99.90;;;;;;5074217;28;20182;-83
2020/12/17 05:42:02;;;;;;;12.75;10.48;;;3.50;99.90;;;;;;5074023;28;20200;-83
2020/12/17 05:45:02;;;;;;;;;;;;;;;;;;;;;
2020/12/17 05:47:59;;;;;;;10.95;10.00;;;3.50;99.90;;;;;;5074109;28;20213;-83
2020/12/17 05:50:39;;;;;;;11.55;10.50;;;3.50;99.90;;;;;;5052856;28;20216;-83
2020/12/17 05:53:23;;;;;;;12.48;11.18;;;3.50;99.90;;;;;;5067708;28;20234;-84
2020/12/17 05:56:00;;;;;;;13.60;11.55;;;3.50;99.90;;;;;;5063317;28;20252;-84
2020/12/17 05:58:39;;;;;;;12.90;11.65;;;3.50;99.90;;;;;;5062698;28;20251;-85
2020/12/17 06:01:13;;;;;;;12.35;11.15;;;3.50;99.90;;;;;;5062811;28;20219;-85
2020/12/17 06:03:41;;;;;;;14.73;12.30;;;3.50;99.90;;;;;;5064489;28;20209;-85
2020/12/17 06:06:29;;;;;;;17.52;15.57;;;3.60;99.90;;;;;;5065516;28;20217;-85
2020/12/17 06:08:56;;;;;;;14.30;12.85;;;3.60;99.90;;;;;;5060231;28;20214;-85
2020/12/17 06:11:24;;;;;;;17.05;12.75;;;3.70;99.90;;;;;;5065345;28;20212;-84
2020/12/17 06:13:59;;;;;;;14.93;13.43;;;3.70;99.90;;;;;;5065184;28;20286;-84
2020/12/17 06:20:00;;;;;;;16.27;13.13;;;3.90;99.90;;;;;;5058136;28;20251;-84
2020/12/17 06:22:37;;;;;;;14.45;12.43;;;3.90;99.90;;;;;;5059083;28;20248;-84
2020/12/17 06:25:31;;;;;;;14.10;12.57;;;4.00;99.90;;;;;;5064696;28;20201;-84
2020/12/17 06:28:17;;;;;;;13.88;11.68;;;4.10;99.90;;;;;;5064502;28;20218;-84
2020/12/17 06:30:49;;;;;;;13.60;12.20;;;4.20;99.90;;;;;;5065066;28;20635;-85
2020/12/17 06:33:26;;;;;;;16.63;13.07;;;4.30;99.90;;;;;;5064852;28;20227;-84
2020/12/17 06:36:00;;;;;;;15.60;13.38;;;4.30;99.90;;;;;;5065378;28;20233;-85
2020/12/17 06:38:29;;;;;;;13.23;11.82;;;4.30;99.90;;;;;;5066491;28;20223;-85
2020/12/17 06:41:02;;;;;;;13.05;10.52;;;4.40;99.90;;;;;;5066734;28;20214;-84
2020/12/17 06:43:32;;;;;;;14.05;11.63;;;4.50;99.90;;;;;;5066763;28;20710;-84
2020/12/17 06:46:06;;;;;;;12.90;10.63;;;4.60;99.90;;;;;;5067453;28;20213;-85
2020/12/17 06:49:02;;;;;;;13.75;8.65;;;4.60;99.90;;;;;;5066978;28;20199;-85
2020/12/17 06:51:37;;;;;;;10.90;8.95;;;4.60;99.90;;;;;;5064397;28;20238;-84
2020/12/17 06:54:07;;;;;;;9.57;8.63;;;4.70;99.90;;;;;;5065551;28;20230;-84
2020/12/17 06:56:43;;;;;;;11.35;8.90;;;4.80;99.90;;;;;;5066697;28;20227;-85
2020/12/17 07:00:03;;;;;;;;;;;;;;;;;;;;;
2020/12/17 07:16:05;;;;;;;;;;;;;;;;;;;;;
2020/12/17 07:29:07;;;;;;;8.23;7.18;;;5.40;99.90;;;;;;5003318;28;20225;-86
2020/12/17 07:32:03;;;;;;;9.88;7.43;;;5.40;99.90;;;;;;5060519;28;20198;-86
2020/12/17 07:35:18;;;;;;;;;;;;;;;;;;;;;
2020/12/17 07:38:08;;;;;;;;;;;;;;;;;;;;;
2020/12/17 07:41:11;;;;;;;;;;;;;;;;;;;;;
2020/12/17 07:43:57;;;;;;;6.70;6.00;;;5.60;99.90;;;;;;5054144;28;20284;-87
2020/12/17 07:46:45;;;;;;;6.97;6.15;;;5.70;99.90;;;;;;5063881;28;20252;-86
2020/12/17 07:49:26;;;;;;;7.40;6.70;;;5.80;99.90;;;;;;5080569;28;20200;-86
2020/12/17 07:58:34;;;;;;;;;;;;;;;;;;;;;
2020/12/17 08:01:02;;;;;;;9.30;8.02;;;6.00;99.90;;;;;;5080582;28;20299;-86
2020/12/17 08:03:54;;;;;;;7.68;6.57;;;6.10;99.90;;;;;;5082512;28;20285;-86
2020/12/17 08:07:08;;;;;;;7.05;6.35;;;6.20;99.90;;;;;;5058098;28;20237;-86
2020/12/17 08:10:14;;;;;;;9.10;8.05;;;6.20;99.90;;;;;;5058255;28;20211;-87
2020/12/17 08:13:00;;;;;;;;;;;;;;;;;;;;;
2020/12/17 08:15:30;;;;;;;6.97;6.07;;;6.40;99.90;;;;;;5077066;28;20204;-86
2020/12/17 08:18:26;;;;;;;9.27;6.93;;;6.50;99.90;;;;;;5076387;28;20240;-86
2020/12/17 08:21:07;;;;;;;7.35;5.85;;;6.60;99.90;;;;;;5073739;28;20663;-82
2020/12/17 08:23:35;;;;;;;9.70;6.05;;;6.60;99.90;;;;;;5078290;28;20186;-84
2020/12/17 08:26:03;;;;;;;6.22;5.72;;;6.60;99.90;;;;;;5082443;28;20219;-83
2020/12/17 08:28:31;;;;;;;7.75;6.03;;;6.70;99.90;;;;;;5082380;28;20210;-82
2020/12/17 08:31:09;;;;;;;6.40;5.90;;;6.80;99.90;;;;;;5082261;28;20212;-83
2020/12/17 08:33:39;;;;;;;6.15;5.63;;;6.80;99.90;;;;;;5081823;28;20224;-83
2020/12/17 08:36:07;;;;;;;6.97;6.28;;;6.90;99.90;;;;;;5082131;28;20572;-83
2020/12/17 08:38:34;;;;;;;6.30;5.80;;;6.90;99.90;;;;;;5082785;28;20205;-84
2020/12/17 08:41:02;;;;;;;6.47;5.88;;;6.90;99.90;;;;;;5083485;28;20212;-83
2020/12/17 08:43:36;;;;;;;6.18;5.65;;;6.90;99.90;;;;;;5083575;28;20578;-84
2020/12/17 08:46:03;;;;;;;6.13;5.50;;;7.00;99.90;;;;;;5083374;28;20193;-83
2020/12/17 08:48:33;;;;;;;6.38;5.80;;;7.10;99.90;;;;;;5083738;28;20212;-84
2020/12/17 08:50:59;;;;;;;7.30;6.68;;;7.20;99.90;;;;;;5083065;28;20212;-84
2020/12/17 08:53:27;;;;;;;6.85;6.20;;;7.20;99.90;;;;;;5082607;28;20240;-83
2020/12/17 08:56:05;;;;;;;6.85;6.10;;;7.30;99.90;;;;;;5082757;28;20205;-83
2020/12/17 08:58:46;;;;;;;6.60;5.93;;;7.30;99.90;;;;;;5082408;28;20258;-84
2020/12/17 09:01:17;;;;;;;8.13;6.45;;;7.40;99.90;;;;;;5082831;28;20631;-83
2020/12/17 09:03:45;;;;;;;6.53;5.85;;;7.50;99.90;;;;;;5082428;28;20212;-83
2020/12/17 09:06:11;;;;;;;8.52;7.70;;;7.50;99.90;;;;;;5082105;28;20210;-83
2020/12/17 09:08:38;;;;;;;7.38;6.13;;;7.50;99.90;;;;;;5082217;28;20842;-83
2020/12/17 09:11:04;;;;;;;6.53;6.03;;;7.60;99.90;;;;;;5081768;28;20693;-84
2020/12/17 09:13:31;;;;;;;7.30;6.70;;;7.60;99.90;;;;;;5082304;28;20229;-83
2020/12/17 09:16:02;;;;;;;6.82;6.32;;;7.60;99.90;;;;;;5081918;28;20204;-83
2020/12/17 09:18:29;;;;;;;11.60;7.30;;;7.60;99.90;;;;;;5081888;28;20205;-82
2020/12/17 09:21:09;;;;;;;9.05;7.10;;;7.60;99.90;;;;;;5076604;28;20206;-83
2020/12/17 09:23:35;;;;;;;9.82;6.88;;;7.60;99.90;;;;;;5076894;28;20209;-83
2020/12/17 09:26:12;;;;;;;10.55;8.23;;;7.60;99.90;;;;;;5077642;28;20280;-83
2020/12/17 09:28:48;;;;;;;9.27;8.43;;;7.60;99.90;;;;;;5077445;28;20201;-83
2020/12/17 09:31:32;;;;;;;8.13;7.00;;;7.60;99.90;;;;;;5076990;28;20270;-82
2020/12/17 09:34:13;;;;;;;7.85;7.03;;;7.70;99.90;;;;;;5077223;28;20229;-82
2020/12/17 09:36:42;;;;;;;6.75;6.15;;;7.80;99.90;;;;;;5077071;28;20237;-82
2020/12/17 09:39:11;;;;;;;6.65;6.05;;;7.90;99.90;;;;;;5077042;28;20212;-83
2020/12/17 09:41:38;;;;;;;6.82;6.13;;;7.90;99.90;;;;;;5076438;28;20209;-83
2020/12/17 09:44:06;;;;;;;7.45;6.82;;;8.00;99.90;;;;;;5076316;28;20243;-82
2020/12/17 09:46:45;;;;;;;6.53;5.95;;;8.10;99.90;;;;;;5076551;28;20230;-83
2020/12/17 09:49:25;;;;;;;5.63;5.18;;;8.10;99.90;;;;;;5076547;28;20209;-83
2020/12/17 09:52:16;;;;;;;6.80;6.22;;;8.10;99.90;;;;;;5076062;28;20213;-82
2020/12/17 09:54:44;;;;;;;7.00;6.20;;;8.10;99.90;;;;;;5076363;28;20702;-82
2020/12/17 09:57:12;;;;;;;6.10;5.30;;;8.20;99.90;;;;;;5076200;28;20229;-82
2020/12/17 09:59:43;;;;;;;6.32;5.82;;;8.30;99.90;;;;;;5076571;28;20209;-83
2020/12/17 10:02:11;;;;;;;5.88;5.28;;;8.40;99.90;;;;;;5076173;28;20585;-82
2020/12/17 10:04:38;;;;;;;6.13;5.63;;;8.40;99.90;;;;;;5076245;28;20208;-83
2020/12/17 10:07:06;;;;;;;6.25;5.45;;;8.50;99.90;;;;;;5076389;28;20225;-82
2020/12/17 10:09:32;;;;;;;5.80;5.30;;;8.50;99.90;;;;;;5076584;28;20209;-83
2020/12/17 10:11:59;;;;;;;4.70;4.30;;;8.60;99.90;;;;;;5075957;28;20209;-83
2020/12/17 10:14:27;;;;;;;5.10;4.60;;;8.60;99.90;;;;;;5076293;28;20580;-83
2020/12/17 10:16:59;;;;;;;5.40;4.90;;;8.70;99.90;;;;;;5077282;28;20233;-82
2020/12/17 10:19:27;;;;;;;5.63;5.13;;;8.90;99.90;;;;;;5077489;28;20216;-83
2020/12/17 10:21:53;;;;;;;4.97;4.47;;;9.10;99.90;;;;;;5076669;28;20209;-83
2020/12/17 10:24:19;;;;;;;7.30;4.75;;;9.30;99.90;;;;;;5076770;28;20212;-83
2020/12/17 10:26:45;;;;;;;4.93;4.53;;;9.50;99.90;;;;;;5077622;28;20232;-83
2020/12/17 10:29:12;;;;;;;4.07;3.85;;;9.70;99.90;;;;;;5076552;28;20590;-81
2020/12/17 10:31:38;;;;;;;6.32;4.90;;;9.90;99.90;;;;;;5074905;28;20228;-81
2020/12/17 10:34:06;;;;;;;4.53;4.20;;;10.00;99.90;;;;;;5075093;28;20621;-81
2020/12/17 10:36:36;;;;;;;5.40;5.10;;;10.10;99.90;;;;;;5074756;28;20296;-81
2020/12/17 10:39:03;;;;;;;4.90;4.35;;;10.30;99.90;;;;;;5074937;28;20221;-82
2020/12/17 10:41:29;;;;;;;3.70;3.40;;;10.60;99.90;;;;;;5075709;28;20355;-82
2020/12/17 10:43:56;;;;;;;4.23;3.93;;;11.00;99.90;;;;;;5075315;28;20202;-82
2020/12/17 10:46:22;;;;;;;4.77;4.40;;;11.40;99.90;;;;;;5074390;28;20475;-81
2020/12/17 10:48:49;;;;;;;5.03;4.37;;;11.40;99.90;;;;;;5074714;28;20948;-82
2020/12/17 10:51:17;;;;;;;4.73;4.33;;;11.40;99.90;;;;;;5075340;28;20528;-81
2020/12/17 10:53:44;;;;;;;5.87;4.40;;;11.50;99.90;;;;;;5074558;28;20493;-82
2020/12/17 10:56:11;;;;;;;5.67;5.07;;;12.00;99.90;;;;;;5074830;28;20454;-82
2020/12/17 10:58:38;;;;;;;4.10;3.80;;;12.60;99.90;;;;;;5075115;28;20454;-82
2020/12/17 11:01:05;;;;;;;3.10;2.80;;;13.30;99.90;;;;;;5074861;28;20948;-80
2020/12/17 11:03:31;;;;;;;3.23;2.93;;;13.90;99.90;;;;;;5074875;28;20450;-82
2020/12/17 11:05:58;;;;;;;5.03;3.67;;;14.70;98.70;;;;;;5074766;28;20452;-82
2020/12/17 11:08:26;;;;;;;3.80;3.50;;;15.30;96.60;;;;;;5075424;28;20451;-82
2020/12/17 11:10:52;;;;;;;4.90;4.50;;;15.60;95.80;;;;;;5075604;28;20450;-82
2020/12/17 11:13:18;;;;;;;5.23;4.83;;;15.40;94.80;;;;;;5075051;28;21041;-82
2020/12/17 11:15:48;;;;;;;4.80;4.50;;;15.10;94.90;;;;;;5076195;28;20462;-81
2020/12/17 11:18:14;;;;;;;3.97;3.67;;;14.70;95.40;;;;;;5075504;28;20498;-81
2020/12/17 11:20:41;;;;;;;3.50;3.30;;;14.40;96.10;;;;;;5075710;28;20452;-82
2020/12/17 11:23:07;;;;;;;4.20;3.77;;;14.00;96.30;;;;;;5074604;28;20441;-82
2020/12/17 11:25:36;;;;;;;4.40;4.10;;;13.70;96.90;;;;;;5075118;28;20474;-82
2020/12/17 11:28:03;;;;;;;4.70;4.30;;;13.50;97.40;;;;;;5075001;28;21073;-81
2020/12/17 11:30:29;;;;;;;5.00;4.10;;;13.20;98.10;;;;;;5074748;28;20451;-82
2020/12/17 11:32:55;;;;;;;4.00;3.70;;;12.90;98.40;;;;;;5074776;28;20508;-82
2020/12/17 11:35:22;;;;;;;5.83;4.60;;;12.60;98.70;;;;;;5074397;28;20467;-82
2020/12/17 11:37:50;;;;;;;5.90;4.70;;;12.30;99.20;;;;;;5074507;28;20474;-82
2020/12/17 11:40:17;;;;;;;4.60;4.03;;;12.20;99.90;;;;;;5074394;28;20964;-82
2020/12/17 11:42:44;;;;;;;4.73;4.37;;;12.00;99.90;;;;;;5074471;28;20499;-82
2020/12/17 11:45:11;;;;;;;4.87;4.47;;;11.90;99.90;;;;;;5074604;28;20454;-82
2020/12/17 11:47:37;;;;;;;4.07;3.63;;;11.80;99.90;;;;;;5074913;28;20842;-82
2020/12/17 11:50:04;;;;;;;4.27;3.97;;;11.70;99.90;;;;;;5074627;28;20450;-81
2020/12/17 11:52:30;;;;;;;4.30;3.90;;;11.50;99.90;;;;;;5074718;28;20453;-82
2020/12/17 11:54:56;;;;;;;5.47;4.90;;;11.40;99.90;;;;;;5074657;28;20509;-82
2020/12/17 11:57:22;;;;;;;4.73;4.33;;;11.40;99.90;;;;;;5074827;28;20481;-82
2020/12/17 11:59:50;;;;;;;5.13;4.67;;;11.40;99.90;;;;;;5078110;28;20782;-82
2020/12/17 12:02:16;;;;;;;4.30;3.90;;;11.50;99.90;;;;;;5079046;28;20552;-83
2020/12/17 12:04:42;;;;;;;4.30;4.00;;;11.50;99.90;;;;;;5078934;28;20450;-83
2020/12/17 12:07:08;;;;;;;4.20;3.90;;;11.60;99.90;;;;;;5078640;28;20474;-83
2020/12/17 12:09:34;;;;;;;3.97;3.67;;;11.60;99.90;;;;;;5079318;28;20450;-83
2020/12/17 12:12:01;;;;;;;5.37;4.87;;;11.60;99.90;;;;;;5077983;28;20455;-83
2020/12/17 12:14:27;;;;;;;4.23;3.90;;;11.70;99.90;;;;;;5078382;28;20842;-83
2020/12/17 12:16:58;;;;;;;5.20;4.70;;;11.70;99.90;;;;;;5079044;28;20475;-84
2020/12/17 12:19:24;;;;;;;5.10;4.60;;;11.70;99.90;;;;;;5083328;28;20511;-84
2020/12/17 12:21:51;;;;;;;4.83;4.23;;;11.70;99.90;;;;;;5082316;28;20459;-84
2020/12/17 12:24:18;;;;;;;5.80;5.07;;;11.70;99.90;;;;;;5082645;28;20454;-84
2020/12/17 12:26:45;;;;;;;4.50;4.20;;;11.70;99.90;;;;;;5082764;28;20478;-84
2020/12/17 12:29:16;;;;;;;6.93;5.53;;;11.70;99.90;;;;;;5083201;28;20462;-83
2020/12/17 12:31:42;;;;;;;4.93;4.53;;;11.80;99.90;;;;;;5082241;28;20454;-83
2020/12/17 12:34:11;;;;;;;5.53;5.03;;;11.80;99.90;;;;;;5082404;28;20977;-83
2020/12/17 12:36:56;;;;;;;5.93;5.30;;;11.90;99.90;;;;;;5082063;28;20482;-82
2020/12/17 12:39:37;;;;;;;5.27;4.77;;;11.90;99.90;;;;;;5083252;28;20500;-82
2020/12/17 12:42:08;;;;;;;6.00;5.50;;;11.80;99.90;;;;;;5083509;28;20980;-82
2020/12/17 16:32:50;;;;;;;;;;;;;;;;;;;;;
2020/12/17 16:38:33;;;;;;;8.55;7.85;;;10.10;99.90;;;;;;4875343;29;20493;-84
2020/12/17 16:41:00;;;;;;;8.25;7.45;;;10.00;99.90;;;;;;4934584;29;20211;-84
2020/12/17 16:43:27;;;;;;;8.65;7.85;;;9.90;99.90;;;;;;4970330;28;20212;-84
2020/12/17 16:45:53;;;;;;;10.05;8.10;;;9.90;99.90;;;;;;4983143;28;20205;-85
2020/12/17 16:48:23;;;;;;;7.40;6.70;;;9.90;99.90;;;;;;4984961;28;20239;-85
2020/12/17 16:50:49;;;;;;;8.05;7.25;;;9.90;99.90;;;;;;4984218;28;20214;-85
2020/12/17 16:53:27;;;;;;;7.88;6.72;;;9.80;99.90;;;;;;4982804;28;20208;-84
2020/12/17 16:55:54;;;;;;;8.13;7.32;;;9.90;99.90;;;;;;4969203;28;20271;-85
2020/12/17 17:01:21;;;;;;;9.00;8.10;;;9.80;99.90;;;;;;4982935;28;20216;-86
2020/12/17 17:03:50;;;;;;;8.25;7.43;;;9.80;99.90;;;;;;4985165;28;20236;-85
2020/12/17 17:13:59;;;;;;;12.57;10.77;;;9.80;99.90;;;;;;4961915;29;20265;-86
2020/12/17 17:16:29;;;;;;;11.10;10.13;;;9.80;99.90;;;;;;4961621;28;20496;-85
2020/12/17 17:18:55;;;;;;;10.40;9.50;;;9.80;99.90;;;;;;4960597;29;20272;-85
2020/12/17 17:21:22;;;;;;;10.00;8.65;;;9.90;99.90;;;;;;4963871;28;20465;-85
2020/12/17 17:23:48;;;;;;;9.95;8.90;;;9.90;99.90;;;;;;4961687;28;20318;-85
2020/12/17 17:26:14;;;;;;;9.40;8.60;;;9.90;99.90;;;;;;4965414;28;20233;-84
2020/12/17 17:28:41;;;;;;;7.60;6.35;;;9.90;99.90;;;;;;4962456;28;20214;-86
2020/12/17 17:31:12;;;;;;;9.50;8.50;;;9.90;99.90;;;;;;4961796;28;20213;-86
2020/12/17 17:33:40;;;;;;;6.85;6.25;;;9.90;99.90;;;;;;4962619;28;20226;-86
2020/12/17 17:36:07;;;;;;;6.80;6.22;;;9.80;99.90;;;;;;4962921;28;20210;-85
2020/12/17 17:38:34;;;;;;;8.57;6.78;;;9.80;99.90;;;;;;4962424;28;20209;-85
2020/12/17 17:41:01;;;;;;;6.10;5.10;;;9.80;99.90;;;;;;4958461;28;20302;-85
2020/12/17 17:43:29;;;;;;;9.75;6.60;;;9.80;99.90;;;;;;4958087;28;20670;-85
2020/12/17 17:45:56;;;;;;;7.20;6.50;;;9.70;99.90;;;;;;4959043;28;20264;-86
2020/12/17 17:48:24;;;;;;;7.28;6.57;;;9.70;99.90;;;;;;4962050;28;20229;-85
2020/12/17 17:54:40;;;;;;;8.77;6.90;;;9.70;99.90;;;;;;4902049;29;20230;-85
2020/12/17 18:25:37;;;;;;;8.18;7.55;;;9.70;99.90;;;;;;1278455;26;21047;-84
2020/12/17 18:28:26;;;;;;;10.80;9.73;;;9.80;99.90;;;;;;4983729;28;20239;-85
2020/12/17 18:31:07;;;;;;;10.57;8.60;;;9.70;99.90;;;;;;4983719;28;20205;-86
2020/12/17 18:34:09;;;;;;;8.52;7.72;;;9.70;99.90;;;;;;4982585;28;20236;-86
2020/12/17 18:36:39;;;;;;;9.27;8.48;;;9.60;99.90;;;;;;4885278;29;20243;-85
2020/12/17 18:39:05;;;;;;;7.93;7.13;;;9.50;99.90;;;;;;4937325;28;20209;-85
2020/12/17 18:41:32;;;;;;;9.40;8.60;;;9.50;99.90;;;;;;4983272;28;20220;-85
2020/12/17 18:43:58;;;;;;;9.70;8.80;;;9.50;99.90;;;;;;4983693;28;20236;-85
2020/12/17 18:46:25;;;;;;;7.38;6.80;;;9.50;99.90;;;;;;4983799;28;20310;-85
2020/12/17 18:48:51;;;;;;;10.88;7.68;;;9.50;99.90;;;;;;4983998;28;20208;-85
2020/12/17 18:51:19;;;;;;;9.02;8.13;;;9.50;99.90;;;;;;4984335;28;20217;-83
2020/12/17 18:53:46;;;;;;;11.88;7.70;;;9.40;99.90;;;;;;4983708;28;20220;-84
2020/12/17 18:56:12;;;;;;;10.68;7.90;;;9.40;99.90;;;;;;4982173;28;20214;-84
2020/12/17 18:58:39;;;;;;;9.40;8.00;;;9.40;99.90;;;;;;4991845;28;20239;-83